sensor_id;sensor_type;location;lat;lon;timestamp;pressure;altitude;pressure_sealevel;temperature;humidity
9289;BME280;4683;50.864;12.086;2023-06-24T00:02:41;99768.28;;;16.27;100.00
9289;BME280;4683;50.864;12.086;2023-06-24T00:09:39;99765.88;;;15.97;100.00
9289;BME280;4683;50.864;12.086;2023-06-24T00:12:28;99767.28;;;15.86;100.00
9289;BME280;4683;50.864;12.086;2023-06-24T00:15:17;99766.66;;;15.84;100.00
9289;BME280;4683;50.864;12.086;2023-06-24T00:18:05;99756.88;;;15.91;100.00
9289;BME280;4683;50.864;12.086;2023-06-24T00:20:53;99755.47;;;15.95;100.00
9289;BME280;4683;50.864;12.086;2023-06-24T00:23:41;99760.00;;;16.08;100.00
9289;BME280;4683;50.864;12.086;2023-06-24T00:26:31;99762.69;;;16.08;100.00
9289;BME280;4683;50.864;12.086;2023-06-24T00:29:19;99773.50;;;16.07;100.00
9289;BME280;4683;50.864;12.086;2023-06-24T00:32:08;99780.25;;;16.03;100.00
9289;BME280;4683;50.864;12.086;2023-06-24T00:34:56;99777.81;;;16.08;100.00
9289;BME280;4683;50.864;12.086;2023-06-24T00:37:47;99777.84;;;16.21;100.00
9289;BME280;4683;50.864;12.086;2023-06-24T00:40:37;99781.75;;;16.25;100.00
9289;BME280;4683;50.864;12.086;2023-06-24T00:43:27;99781.16;;;16.23;100.00
9289;BME280;4683;50.864;12.086;2023-06-24T00:46:17;99776.66;;;16.23;100.00
9289;BME280;4683;50.864;12.086;2023-06-24T00:49:06;99769.88;;;16.21;100.00
9289;BME280;4683;50.864;12.086;2023-06-24T00:51:55;99762.69;;;16.15;100.00
9289;BME280;4683;50.864;12.086;2023-06-24T00:54:44;99764.31;;;16.16;100.00
9289;BME280;4683;50.864;12.086;2023-06-24T00:57:32;99764.91;;;16.11;100.00
9289;BME280;4683;50.864;12.086;2023-06-24T01:00:27;99780.66;;;16.06;100.00
9289;BME280;4683;50.864;12.086;2023-06-24T01:03:15;99775.34;;;16.06;100.00
9289;BME280;4683;50.864;12.086;2023-06-24T01:06:04;99782.50;;;16.06;100.00
9289;BME280;4683;50.864;12.086;2023-06-24T01:08:53;99775.72;;;16.03;100.00
9289;BME280;4683;50.864;12.086;2023-06-24T01:11:43;99770.22;;;16.05;100.00
9289;BME280;4683;50.864;12.086;2023-06-24T01:14:31;99766.16;;;16.09;100.00
9289;BME280;4683;50.864;12.086;2023-06-24T01:17:34;99770.41;;;16.03;100.00
9289;BME280;4683;50.864;12.086;2023-06-24T01:20:27;99763.06;;;16.05;100.00
9289;BME280;4683;50.864;12.086;2023-06-24T01:24:01;99767.06;;;15.88;100.00
9289;BME280;4683;50.864;12.086;2023-06-24T01:34:04;99746.66;;;16.02;100.00
9289;BME280;4683;50.864;12.086;2023-06-24T01:37:08;99745.84;;;16.01;100.00
9289;BME280;4683;50.864;12.086;2023-06-24T01:40:11;99755.47;;;16.02;100.00
9289;BME280;4683;50.864;12.086;2023-06-24T01:43:01;99748.72;;;16.00;100.00
9289;BME280;4683;50.864;12.086;2023-06-24T01:45:53;99738.03;;;15.93;100.00
9289;BME280;4683;50.864;12.086;2023-06-24T01:48:46;99743.19;;;15.94;100.00
9289;BME280;4683;50.864;12.086;2023-06-24T01:51:40;99730.66;;;15.88;100.00
9289;BME280;4683;50.864;12.086;2023-06-24T01:54:29;99729.44;;;15.91;100.00
9289;BME280;4683;50.864;12.086;2023-06-24T02:06:29;99722.00;;;15.73;100.00
9289;BME280;4683;50.864;12.086;2023-06-24T02:09:20;99732.25;;;15.76;100.00
9289;BME280;4683;50.864;12.086;2023-06-24T02:12:12;99728.94;;;15.74;100.00
9289;BME280;4683;50.864;12.086;2023-06-24T02:15:02;99734.03;;;15.69;100.00
9289;BME280;4683;50.864;12.086;2023-06-24T02:17:54;99735.06;;;15.68;100.00
9289;BME280;4683;50.864;12.086;2023-06-24T02:20:43;99742.78;;;15.63;100.00
9289;BME280;4683;50.864;12.086;2023-06-24T02:23:33;99731.16;;;15.64;100.00
9289;BME280;4683;50.864;12.086;2023-06-24T02:26:25;99725.38;;;15.60;100.00
9289;BME280;4683;50.864;12.086;2023-06-24T02:29:14;99727.59;;;15.57;100.00
9289;BME280;4683;50.864;12.086;2023-06-24T02:32:03;99735.72;;;15.48;100.00
9289;BME280;4683;50.864;12.086;2023-06-24T02:34:52;99734.06;;;15.41;100.00
9289;BME280;4683;50.864;12.086;2023-06-24T02:41:48;99735.81;;;15.27;100.00
9289;BME280;4683;50.864;12.086;2023-06-24T02:44:36;99741.31;;;15.26;100.00
9289;BME280;4683;50.864;12.086;2023-06-24T02:48:04;99749.38;;;15.11;100.00
9289;BME280;4683;50.864;12.086;2023-06-24T02:50:54;99751.25;;;15.17;100.00
9289;BME280;4683;50.864;12.086;2023-06-24T02:53:42;99749.00;;;15.14;100.00
9289;BME280;4683;50.864;12.086;2023-06-24T02:56:35;99744.72;;;15.13;100.00
9289;BME280;4683;50.864;12.086;2023-06-24T02:59:31;99745.09;;;15.10;100.00
9289;BME280;4683;50.864;12.086;2023-06-24T03:02:20;99748.56;;;15.10;100.00
9289;BME280;4683;50.864;12.086;2023-06-24T03:05:10;99753.91;;;15.17;100.00
9289;BME280;4683;50.864;12.086;2023-06-24T03:07:58;99751.91;;;15.19;100.00
9289;BME280;4683;50.864;12.086;2023-06-24T03:10:47;99753.91;;;15.17;100.00
9289;BME280;4683;50.864;12.086;2023-06-24T03:13:35;99760.00;;;15.11;100.00
9289;BME280;4683;50.864;12.086;2023-06-24T03:16:25;99763.25;;;15.06;100.00
9289;BME280;4683;50.864;12.086;2023-06-24T03:19:13;99764.06;;;15.07;100.00
9289;BME280;4683;50.864;12.086;2023-06-24T03:22:02;99772.25;;;15.05;100.00
9289;BME280;4683;50.864;12.086;2023-06-24T03:24:51;99773.06;;;15.06;100.00
9289;BME280;4683;50.864;12.086;2023-06-24T03:27:39;99776.72;;;15.05;100.00
9289;BME280;4683;50.864;12.086;2023-06-24T03:30:27;99781.81;;;15.00;100.00
9289;BME280;4683;50.864;12.086;2023-06-24T03:33:17;99797.09;;;14.97;100.00
9289;BME280;4683;50.864;12.086;2023-06-24T03:36:06;99798.13;;;14.96;100.00
9289;BME280;4683;50.864;12.086;2023-06-24T03:38:54;99800.78;;;14.96;100.00
9289;BME280;4683;50.864;12.086;2023-06-24T03:45:17;99802.53;;;14.89;100.00
9289;BME280;4683;50.864;12.086;2023-06-24T03:48:05;99800.16;;;14.94;100.00
9289;BME280;4683;50.864;12.086;2023-06-24T03:50:55;99804.06;;;14.98;100.00
9289;BME280;4683;50.864;12.086;2023-06-24T03:53:45;99802.28;;;15.06;100.00
9289;BME280;4683;50.864;12.086;2023-06-24T03:56:33;99809.47;;;15.12;100.00
9289;BME280;4683;50.864;12.086;2023-06-24T04:03:28;99828.97;;;15.19;100.00
9289;BME280;4683;50.864;12.086;2023-06-24T04:09:18;99830.13;;;15.31;100.00
9289;BME280;4683;50.864;12.086;2023-06-24T04:12:08;99817.69;;;15.38;100.00
9289;BME280;4683;50.864;12.086;2023-06-24T04:14:56;99815.91;;;15.45;100.00
9289;BME280;4683;50.864;12.086;2023-06-24T04:17:45;99821.50;;;15.57;100.00
9289;BME280;4683;50.864;12.086;2023-06-24T04:20:34;99826.69;;;15.65;100.00
9289;BME280;4683;50.864;12.086;2023-06-24T04:23:23;99826.00;;;15.85;100.00
9289;BME280;4683;50.864;12.086;2023-06-24T04:26:14;99827.75;;;16.06;100.00
9289;BME280;4683;50.864;12.086;2023-06-24T04:29:02;99812.59;;;16.61;100.00
9289;BME280;4683;50.864;12.086;2023-06-24T04:31:50;99818.03;;;17.07;100.00
9289;BME280;4683;50.864;12.086;2023-06-24T04:34:40;99826.47;;;17.24;100.00
9289;BME280;4683;50.864;12.086;2023-06-24T04:37:28;99834.25;;;17.45;100.00
9289;BME280;4683;50.864;12.086;2023-06-24T04:40:16;99849.66;;;17.63;100.00
9289;BME280;4683;50.864;12.086;2023-06-24T04:43:06;99860.53;;;17.75;100.00
9289;BME280;4683;50.864;12.086;2023-06-24T04:45:55;99860.00;;;18.24;100.00
9289;BME280;4683;50.864;12.086;2023-06-24T04:48:43;99892.66;;;18.33;100.00
9289;BME280;4683;50.864;12.086;2023-06-24T04:51:32;99889.81;;;18.80;100.00
9289;BME280;4683;50.864;12.086;2023-06-24T04:54:20;99911.78;;;19.20;100.00
9289;BME280;4683;50.864;12.086;2023-06-24T04:57:23;99922.97;;;19.73;100.00
9289;BME280;4683;50.864;12.086;2023-06-24T05:00:13;99954.13;;;19.68;100.00
9289;BME280;4683;50.864;12.086;2023-06-24T05:03:04;99966.53;;;19.62;100.00
9289;BME280;4683;50.864;12.086;2023-06-24T05:06:35;99961.91;;;19.69;100.00
9289;BME280;4683;50.864;12.086;2023-06-24T05:10:55;99983.13;;;18.94;100.00
9289;BME280;4683;50.864;12.086;2023-06-24T05:15:02;99993.16;;;18.28;100.00
9289;BME280;4683;50.864;12.086;2023-06-24T05:18:05;99983.31;;;18.21;100.00
9289;BME280;4683;50.864;12.086;2023-06-24T05:20:56;99980.00;;;18.26;100.00
9289;BME280;4683;50.864;12.086;2023-06-24T05:23:55;99986.59;;;18.17;100.00
9289;BME280;4683;50.864;12.086;2023-06-24T05:26:54;99975.91;;;18.17;100.00
9289;BME280;4683;50.864;12.086;2023-06-24T05:30:06;99979.59;;;18.22;100.00
9289;BME280;4683;50.864;12.086;2023-06-24T05:33:25;99985.75;;;18.23;100.00
9289;BME280;4683;50.864;12.086;2023-06-24T05:36:31;99980.22;;;18.31;100.00
9289;BME280;4683;50.864;12.086;2023-06-24T05:39:39;99982.91;;;18.18;100.00
9289;BME280;4683;50.864;12.086;2023-06-24T05:43:06;99982.06;;;18.17;100.00
9289;BME280;4683;50.864;12.086;2023-06-24T05:46:05;99977.09;;;18.34;100.00
9289;BME280;4683;50.864;12.086;2023-06-24T05:53:56;99982.06;;;18.11;100.00
9289;BME280;4683;50.864;12.086;2023-06-24T05:58:00;99975.28;;;18.02;100.00
9289;BME280;4683;50.864;12.086;2023-06-24T06:06:14;99992.88;;;18.56;100.00
9289;BME280;4683;50.864;12.086;2023-06-24T06:09:34;99984.91;;;19.14;100.00
9289;BME280;4683;50.864;12.086;2023-06-24T06:13:02;99984.72;;;19.09;100.00
9289;BME280;4683;50.864;12.086;2023-06-24T06:16:49;99986.69;;;19.26;100.00
9289;BME280;4683;50.864;12.086;2023-06-24T06:20:35;99978.31;;;19.80;100.00
9289;BME280;4683;50.864;12.086;2023-06-24T06:24:28;99991.84;;;20.35;100.00
9289;BME280;4683;50.864;12.086;2023-06-24T06:28:27;99994.91;;;20.38;100.00
9289;BME280;4683;50.864;12.086;2023-06-24T06:32:17;100005.66;;;20.93;100.00
9289;BME280;4683;50.864;12.086;2023-06-24T06:36:15;100017.59;;;20.79;100.00
9289;BME280;4683;50.864;12.086;2023-06-24T06:39:45;100020.50;;;20.34;100.00
9289;BME280;4683;50.864;12.086;2023-06-24T06:42:47;100026.41;;;19.68;100.00
9289;BME280;4683;50.864;12.086;2023-06-24T06:46:14;100021.19;;;19.35;100.00
9289;BME280;4683;50.864;12.086;2023-06-24T06:49:56;100021.06;;;19.93;100.00
9289;BME280;4683;50.864;12.086;2023-06-24T06:53:57;100029.47;;;19.96;100.00
9289;BME280;4683;50.864;12.086;2023-06-24T07:10:06;100026.28;;;20.13;100.00
9289;BME280;4683;50.864;12.086;2023-06-24T07:14:03;100037.78;;;19.88;100.00
9289;BME280;4683;50.864;12.086;2023-06-24T07:18:45;100040.28;;;19.83;100.00
9289;BME280;4683;50.864;12.086;2023-06-24T07:41:00;100040.72;;;20.98;100.00
9289;BME280;4683;50.864;12.086;2023-06-24T07:51:36;100047.81;;;19.68;100.00
9289;BME280;4683;50.864;12.086;2023-06-24T07:55:45;100038.50;;;20.02;100.00
9289;BME280;4683;50.864;12.086;2023-06-24T08:03:53;100049.94;;;20.41;100.00
9289;BME280;4683;50.864;12.086;2023-06-24T08:07:45;100046.56;;;20.70;100.00
9289;BME280;4683;50.864;12.086;2023-06-24T08:11:03;100049.63;;;20.56;100.00
9289;BME280;4683;50.864;12.086;2023-06-24T08:13:52;100053.19;;;20.43;100.00
9289;BME280;4683;50.864;12.086;2023-06-24T08:17:07;100064.78;;;19.87;100.00
9289;BME280;4683;50.864;12.086;2023-06-24T08:20:33;100054.22;;;20.48;100.00
9289;BME280;4683;50.864;12.086;2023-06-24T08:37:18;100058.59;;;21.05;100.00
9289;BME280;4683;50.864;12.086;2023-06-24T08:40:19;100043.59;;;21.34;100.00
9289;BME280;4683;50.864;12.086;2023-06-24T08:50:14;100041.88;;;20.84;100.00
9289;BME280;4683;50.864;12.086;2023-06-24T08:54:16;100046.06;;;20.98;100.00
9289;BME280;4683;50.864;12.086;2023-06-24T08:57:07;100041.72;;;21.34;100.00
9289;BME280;4683;50.864;12.086;2023-06-24T09:00:01;100043.38;;;21.35;100.00
9289;BME280;4683;50.864;12.086;2023-06-24T09:02:50;100044.53;;;21.58;100.00
9289;BME280;4683;50.864;12.086;2023-06-24T09:05:38;100050.91;;;21.87;100.00
9289;BME280;4683;50.864;12.086;2023-06-24T09:08:27;100049.38;;;21.49;100.00
9289;BME280;4683;50.864;12.086;2023-06-24T09:11:28;100046.63;;;21.19;100.00
9289;BME280;4683;50.864;12.086;2023-06-24T09:14:55;100046.91;;;21.47;100.00
9289;BME280;4683;50.864;12.086;2023-06-24T09:17:45;100043.00;;;21.62;100.00
9289;BME280;4683;50.864;12.086;2023-06-24T09:20:35;100043.72;;;21.69;100.00
9289;BME280;4683;50.864;12.086;2023-06-24T09:23:29;100035.38;;;22.00;100.00
9289;BME280;4683;50.864;12.086;2023-06-24T09:26:19;100039.78;;;21.71;100.00
9289;BME280;4683;50.864;12.086;2023-06-24T09:29:09;100031.41;;;21.91;100.00
9289;BME280;4683;50.864;12.086;2023-06-24T09:31:58;100031.13;;;22.23;100.00
9289;BME280;4683;50.864;12.086;2023-06-24T09:34:47;100029.50;;;22.45;100.00
9289;BME280;4683;50.864;12.086;2023-06-24T09:37:36;100028.66;;;22.33;100.00
9289;BME280;4683;50.864;12.086;2023-06-24T09:40:24;100027.03;;;22.32;100.00
9289;BME280;4683;50.864;12.086;2023-06-24T09:43:20;100027.00;;;22.09;100.00
9289;BME280;4683;50.864;12.086;2023-06-24T09:46:09;100026.56;;;22.59;100.00
9289;BME280;4683;50.864;12.086;2023-06-24T09:48:57;100031.81;;;22.65;100.00
9289;BME280;4683;50.864;12.086;2023-06-24T09:51:49;100034.28;;;22.43;100.00
9289;BME280;4683;50.864;12.086;2023-06-24T09:54:37;100024.69;;;22.59;100.00
9289;BME280;4683;50.864;12.086;2023-06-24T09:57:29;100021.13;;;22.82;100.00
9289;BME280;4683;50.864;12.086;2023-06-24T10:00:22;100019.94;;;23.01;100.00
9289;BME280;4683;50.864;12.086;2023-06-24T10:03:10;100025.16;;;22.68;100.00
9289;BME280;4683;50.864;12.086;2023-06-24T10:06:00;100026.88;;;22.86;100.00
9289;BME280;4683;50.864;12.086;2023-06-24T10:08:48;100019.59;;;23.10;100.00
9289;BME280;4683;50.864;12.086;2023-06-24T10:11:37;100021.91;;;23.18;100.00
9289;BME280;4683;50.864;12.086;2023-06-24T10:14:26;100023.69;;;23.41;100.00
9289;BME280;4683;50.864;12.086;2023-06-24T10:17:15;100029.41;;;23.44;100.00
9289;BME280;4683;50.864;12.086;2023-06-24T10:20:08;100027.94;;;23.25;100.00
9289;BME280;4683;50.864;12.086;2023-06-24T10:22:56;100025.56;;;23.40;100.00
9289;BME280;4683;50.864;12.086;2023-06-24T10:25:48;100032.84;;;23.28;100.00
9289;BME280;4683;50.864;12.086;2023-06-24T10:29:10;100022.53;;;23.37;96.58
9289;BME280;4683;50.864;12.086;2023-06-24T10:32:06;100020.50;;;23.72;95.29
9289;BME280;4683;50.864;12.086;2023-06-24T10:34:57;100020.34;;;23.79;93.73
9289;BME280;4683;50.864;12.086;2023-06-24T10:37:55;100033.41;;;23.87;94.16
9289;BME280;4683;50.864;12.086;2023-06-24T10:40:47;100028.97;;;23.64;98.64
9289;BME280;4683;50.864;12.086;2023-06-24T10:43:41;100019.53;;;23.78;98.32
9289;BME280;4683;50.864;12.086;2023-06-24T10:46:36;100017.56;;;23.74;94.83
9289;BME280;4683;50.864;12.086;2023-06-24T10:49:27;100009.06;;;23.65;99.75
9289;BME280;4683;50.864;12.086;2023-06-24T10:52:19;100012.66;;;23.88;97.06
9289;BME280;4683;50.864;12.086;2023-06-24T10:55:09;100000.00;;;23.88;95.24
9289;BME280;4683;50.864;12.086;2023-06-24T10:58:07;100009.00;;;24.11;93.97
9289;BME280;4683;50.864;12.086;2023-06-24T11:01:16;99998.88;;;24.18;90.01
9289;BME280;4683;50.864;12.086;2023-06-24T11:04:06;99992.06;;;24.32;91.71
9289;BME280;4683;50.864;12.086;2023-06-24T11:07:27;99992.66;;;23.67;83.65
9289;BME280;4683;50.864;12.086;2023-06-24T11:10:16;99992.84;;;23.77;92.99
9289;BME280;4683;50.864;12.086;2023-06-24T11:13:05;99995.34;;;24.17;91.60
9289;BME280;4683;50.864;12.086;2023-06-24T11:16:00;99980.47;;;24.15;86.62
9289;BME280;4683;50.864;12.086;2023-06-24T11:18:49;99991.72;;;24.28;89.01
9289;BME280;4683;50.864;12.086;2023-06-24T11:21:37;99975.81;;;24.27;90.51
9289;BME280;4683;50.864;12.086;2023-06-24T11:24:26;99984.31;;;24.02;84.76
9289;BME280;4683;50.864;12.086;2023-06-24T11:27:15;99985.91;;;23.81;89.27
9289;BME280;4683;50.864;12.086;2023-06-24T11:30:04;99980.81;;;24.01;87.27
9289;BME280;4683;50.864;12.086;2023-06-24T11:32:52;99966.28;;;23.86;87.10
9289;BME280;4683;50.864;12.086;2023-06-24T11:35:41;99966.44;;;24.13;88.04
9289;BME280;4683;50.864;12.086;2023-06-24T11:38:30;99970.09;;;24.40;87.76
9289;BME280;4683;50.864;12.086;2023-06-24T11:41:22;99977.53;;;24.72;83.08
9289;BME280;4683;50.864;12.086;2023-06-24T11:44:12;99975.69;;;24.99;82.38
9289;BME280;4683;50.864;12.086;2023-06-24T11:47:05;99974.31;;;24.75;74.30
9289;BME280;4683;50.864;12.086;2023-06-24T11:49:56;99962.44;;;24.54;79.93
9289;BME280;4683;50.864;12.086;2023-06-24T11:52:47;99965.00;;;24.66;80.90
9289;BME280;4683;50.864;12.086;2023-06-24T11:55:36;99957.63;;;24.78;81.48
9289;BME280;4683;50.864;12.086;2023-06-24T11:58:26;99966.25;;;25.02;80.11
9289;BME280;4683;50.864;12.086;2023-06-24T12:01:14;99962.94;;;25.17;77.57
9289;BME280;4683;50.864;12.086;2023-06-24T12:04:10;99953.19;;;25.16;70.15
9289;BME280;4683;50.864;12.086;2023-06-24T12:06:58;99957.13;;;24.81;79.99
9289;BME280;4683;50.864;12.086;2023-06-24T12:09:46;99958.81;;;25.09;80.74
9289;BME280;4683;50.864;12.086;2023-06-24T12:12:34;99959.22;;;25.50;76.72
9289;BME280;4683;50.864;12.086;2023-06-24T12:15:24;99956.56;;;25.28;72.28
9289;BME280;4683;50.864;12.086;2023-06-24T12:18:13;99948.19;;;25.29;74.42
9289;BME280;4683;50.864;12.086;2023-06-24T12:21:01;99946.19;;;25.47;70.49
9289;BME280;4683;50.864;12.086;2023-06-24T12:23:49;99946.47;;;25.18;71.40
9289;BME280;4683;50.864;12.086;2023-06-24T12:26:37;99943.19;;;25.43;71.47
9289;BME280;4683;50.864;12.086;2023-06-24T12:29:25;99936.94;;;25.70;69.72
9289;BME280;4683;50.864;12.086;2023-06-24T12:32:15;99923.56;;;25.85;66.21
9289;BME280;4683;50.864;12.086;2023-06-24T12:35:04;99931.66;;;25.80;64.14
9289;BME280;4683;50.864;12.086;2023-06-24T12:37:54;99945.22;;;25.85;62.11
9289;BME280;4683;50.864;12.086;2023-06-24T12:40:43;99933.97;;;26.03;63.19
9289;BME280;4683;50.864;12.086;2023-06-24T12:43:32;99935.00;;;25.97;61.39
9289;BME280;4683;50.864;12.086;2023-06-24T12:46:21;99937.19;;;26.00;63.90
9289;BME280;4683;50.864;12.086;2023-06-24T12:49:10;99928.75;;;26.39;61.58
9289;BME280;4683;50.864;12.086;2023-06-24T12:52:00;99928.25;;;26.00;62.77
9289;BME280;4683;50.864;12.086;2023-06-24T12:54:49;99928.81;;;25.70;62.17
9289;BME280;4683;50.864;12.086;2023-06-24T12:57:37;99923.00;;;25.83;62.29
9289;BME280;4683;50.864;12.086;2023-06-24T13:00:26;99933.00;;;25.50;62.60
9289;BME280;4683;50.864;12.086;2023-06-24T13:03:14;99923.44;;;25.38;65.19
9289;BME280;4683;50.864;12.086;2023-06-24T13:06:04;99928.91;;;25.48;64.99
9289;BME280;4683;50.864;12.086;2023-06-24T13:08:53;99926.53;;;25.84;64.49
9289;BME280;4683;50.864;12.086;2023-06-24T13:11:41;99928.28;;;26.05;65.89
9289;BME280;4683;50.864;12.086;2023-06-24T13:14:29;99927.31;;;26.21;64.17
9289;BME280;4683;50.864;12.086;2023-06-24T13:17:17;99917.38;;;26.37;62.33
9289;BME280;4683;50.864;12.086;2023-06-24T13:20:07;99912.25;;;26.36;60.62
9289;BME280;4683;50.864;12.086;2023-06-24T13:22:56;99919.09;;;26.53;61.66
9289;BME280;4683;50.864;12.086;2023-06-24T13:25:44;99921.44;;;26.35;59.44
9289;BME280;4683;50.864;12.086;2023-06-24T13:28:33;99916.19;;;26.18;59.17
9289;BME280;4683;50.864;12.086;2023-06-24T13:31:22;99915.41;;;26.22;58.74
9289;BME280;4683;50.864;12.086;2023-06-24T13:34:11;99921.81;;;26.48;57.80
9289;BME280;4683;50.864;12.086;2023-06-24T13:36:59;99911.81;;;26.59;57.14
9289;BME280;4683;50.864;12.086;2023-06-24T13:39:49;99921.53;;;26.55;53.45
9289;BME280;4683;50.864;12.086;2023-06-24T13:42:37;99916.75;;;26.20;56.32
9289;BME280;4683;50.864;12.086;2023-06-24T13:45:29;99918.31;;;26.11;57.35
9289;BME280;4683;50.864;12.086;2023-06-24T13:48:17;99910.69;;;26.45;57.84
9289;BME280;4683;50.864;12.086;2023-06-24T13:51:06;99911.00;;;26.59;57.11
9289;BME280;4683;50.864;12.086;2023-06-24T13:53:57;99906.13;;;26.66;56.93
9289;BME280;4683;50.864;12.086;2023-06-24T13:56:46;99904.53;;;26.75;55.62
9289;BME280;4683;50.864;12.086;2023-06-24T13:59:35;99911.88;;;26.79;54.79
9289;BME280;4683;50.864;12.086;2023-06-24T14:02:23;99905.94;;;26.83;54.11
9289;BME280;4683;50.864;12.086;2023-06-24T14:05:12;99892.91;;;26.79;53.30
9289;BME280;4683;50.864;12.086;2023-06-24T14:08:00;99900.22;;;26.79;53.83
9289;BME280;4683;50.864;12.086;2023-06-24T14:10:49;99900.22;;;26.69;55.83
9289;BME280;4683;50.864;12.086;2023-06-24T14:13:40;99891.34;;;26.94;55.35
9289;BME280;4683;50.864;12.086;2023-06-24T14:16:28;99896.41;;;26.70;56.29
9289;BME280;4683;50.864;12.086;2023-06-24T14:19:17;99894.16;;;26.46;56.77
9289;BME280;4683;50.864;12.086;2023-06-24T14:22:06;99875.03;;;26.78;56.47
9289;BME280;4683;50.864;12.086;2023-06-24T14:24:54;99885.66;;;27.00;55.19
9289;BME280;4683;50.864;12.086;2023-06-24T14:27:43;99889.44;;;26.89;55.46
9289;BME280;4683;50.864;12.086;2023-06-24T14:30:33;99872.09;;;26.85;55.71
9289;BME280;4683;50.864;12.086;2023-06-24T14:33:23;99880.22;;;26.90;55.20
9289;BME280;4683;50.864;12.086;2023-06-24T14:36:11;99870.50;;;26.94;55.59
9289;BME280;4683;50.864;12.086;2023-06-24T14:39:00;99880.84;;;27.13;55.88
9289;BME280;4683;50.864;12.086;2023-06-24T14:41:48;99874.34;;;27.39;52.04
9289;BME280;4683;50.864;12.086;2023-06-24T14:44:36;99861.88;;;27.23;51.56
9289;BME280;4683;50.864;12.086;2023-06-24T14:47:26;99867.28;;;27.18;51.84
9289;BME280;4683;50.864;12.086;2023-06-24T14:50:16;99869.19;;;27.27;51.22
9289;BME280;4683;50.864;12.086;2023-06-24T14:53:04;99859.66;;;27.04;51.15
9289;BME280;4683;50.864;12.086;2023-06-24T14:55:53;99863.75;;;27.38;51.49
9289;BME280;4683;50.864;12.086;2023-06-24T14:58:41;99871.88;;;27.38;50.70
9289;BME280;4683;50.864;12.086;2023-06-24T15:01:29;99855.34;;;27.54;50.40
9289;BME280;4683;50.864;12.086;2023-06-24T15:04:20;99846.13;;;27.71;50.04
9289;BME280;4683;50.864;12.086;2023-06-24T15:07:09;99852.09;;;27.78;50.33
9289;BME280;4683;50.864;12.086;2023-06-24T15:09:57;99843.94;;;27.83;49.83
9289;BME280;4683;50.864;12.086;2023-06-24T15:12:48;99845.59;;;27.53;49.86
9289;BME280;4683;50.864;12.086;2023-06-24T15:15:37;99846.13;;;27.25;51.66
9289;BME280;4683;50.864;12.086;2023-06-24T15:18:26;99845.03;;;27.56;52.37
9289;BME280;4683;50.864;12.086;2023-06-24T15:21:16;99842.84;;;27.84;52.23
9289;BME280;4683;50.864;12.086;2023-06-24T15:24:06;99848.13;;;28.85;50.98
9289;BME280;4683;50.864;12.086;2023-06-24T15:26:58;99839.06;;;29.33;49.29
9289;BME280;4683;50.864;12.086;2023-06-24T15:29:47;99832.63;;;30.30;47.47
9289;BME280;4683;50.864;12.086;2023-06-24T15:32:37;99828.19;;;30.77;46.42
9289;BME280;4683;50.864;12.086;2023-06-24T15:35:25;99822.38;;;30.22;45.78
9289;BME280;4683;50.864;12.086;2023-06-24T15:38:17;99822.63;;;30.64;45.64
9289;BME280;4683;50.864;12.086;2023-06-24T15:41:05;99817.97;;;31.21;43.56
9289;BME280;4683;50.864;12.086;2023-06-24T15:44:16;99816.41;;;31.47;41.10
9289;BME280;4683;50.864;12.086;2023-06-24T15:47:08;99816.69;;;31.32;40.41
9289;BME280;4683;50.864;12.086;2023-06-24T15:49:57;99811.94;;;31.05;42.66
9289;BME280;4683;50.864;12.086;2023-06-24T15:52:48;99813.09;;;31.50;42.66
9289;BME280;4683;50.864;12.086;2023-06-24T15:55:39;99820.19;;;32.06;40.67
9289;BME280;4683;50.864;12.086;2023-06-24T15:58:27;99811.78;;;32.80;39.41
9289;BME280;4683;50.864;12.086;2023-06-24T16:01:16;99814.97;;;32.96;38.53
9289;BME280;4683;50.864;12.086;2023-06-24T16:04:05;99812.19;;;32.74;38.91
9289;BME280;4683;50.864;12.086;2023-06-24T16:06:54;99805.16;;;32.95;38.34
9289;BME280;4683;50.864;12.086;2023-06-24T16:09:42;99802.66;;;33.30;38.95
9289;BME280;4683;50.864;12.086;2023-06-24T16:12:32;99807.34;;;32.48;38.90
9289;BME280;4683;50.864;12.086;2023-06-24T16:15:20;99805.75;;;31.92;41.26
9289;BME280;4683;50.864;12.086;2023-06-24T16:18:09;99806.09;;;32.54;39.87
9289;BME280;4683;50.864;12.086;2023-06-24T16:20:57;99787.25;;;33.82;38.35
9289;BME280;4683;50.864;12.086;2023-06-24T16:23:45;99797.72;;;32.37;39.19
9289;BME280;4683;50.864;12.086;2023-06-24T16:26:34;99790.47;;;32.05;40.33
9289;BME280;4683;50.864;12.086;2023-06-24T16:30:02;99793.94;;;31.83;38.75
9289;BME280;4683;50.864;12.086;2023-06-24T16:33:12;99801.81;;;32.62;39.57
9289;BME280;4683;50.864;12.086;2023-06-24T16:36:12;99795.28;;;33.39;37.19
9289;BME280;4683;50.864;12.086;2023-06-24T16:39:36;99785.28;;;33.74;36.98
9289;BME280;4683;50.864;12.086;2023-06-24T16:43:13;99781.16;;;33.86;37.57
9289;BME280;4683;50.864;12.086;2023-06-24T16:46:29;99785.59;;;34.13;37.10
9289;BME280;4683;50.864;12.086;2023-06-24T16:49:17;99782.09;;;33.41;37.86
9289;BME280;4683;50.864;12.086;2023-06-24T16:52:08;99779.88;;;33.43;36.24
9289;BME280;4683;50.864;12.086;2023-06-24T16:55:35;99777.34;;;33.55;37.12
9289;BME280;4683;50.864;12.086;2023-06-24T16:58:29;99779.78;;;34.14;36.96
9289;BME280;4683;50.864;12.086;2023-06-24T17:01:28;99772.22;;;34.28;36.10
9289;BME280;4683;50.864;12.086;2023-06-24T17:05:06;99775.19;;;32.18;36.99
9289;BME280;4683;50.864;12.086;2023-06-24T17:09:14;99777.06;;;33.03;37.02
9289;BME280;4683;50.864;12.086;2023-06-24T17:12:32;99775.72;;;32.78;37.76
9289;BME280;4683;50.864;12.086;2023-06-24T17:15:21;99776.81;;;32.91;37.25
9289;BME280;4683;50.864;12.086;2023-06-24T17:18:10;99777.28;;;32.71;36.82
9289;BME280;4683;50.864;12.086;2023-06-24T17:20:58;99770.88;;;33.20;36.56
9289;BME280;4683;50.864;12.086;2023-06-24T17:23:47;99773.97;;;33.58;35.68
9289;BME280;4683;50.864;12.086;2023-06-24T17:26:35;99778.31;;;33.60;35.53
9289;BME280;4683;50.864;12.086;2023-06-24T17:29:23;99770.44;;;32.82;36.54
9289;BME280;4683;50.864;12.086;2023-06-24T17:32:11;99772.16;;;32.92;36.92